Aérodrome :
LOGIN :

S'inscrire | Disclaimer

   EN    FR    IT 

 










Légende :    VFR   VFR Marginal   IFR   IFR Intensif   IFR Très Intensif
Visi : 
Plafond : 
>= 8 km
>= 3000ft
5 à 8 km
1000 à 3000 ft
1500m à 5 km
500 à 1000 ft
800 à 1500m
200 à 500 ft
< 800m
< 200 ft
Symboles :   Orages  Brouillard  Fortes neiges  Fortes précipitations  Vent > 20 kt
SIGMETs :   Divers  Orages  Givrage  Turbulence  Onde Orograph.  Cendres Volcan.






- Altitude de l'aérodrome : 1306 ft
- Code IATA : ACH


LSZR - Alten Rhein

DERNIER METAR :
  • 291650Z AUTO 04008KT 360V070 9999 NCD 18/07 Q1020

METARs EXPIRÉS :
  • 291620Z AUTO 03009KT 350V070 9999 FEW070 19/07 Q1021
  • 291550Z AUTO 04009KT 360V080 9999 SCT070 19/06 Q1021
  • 291520Z 03009KT 350V070 CAVOK 19/07 Q1021 NOSIG RMK L
  • 291450Z 03011KT 350V070 CAVOK 19/06 Q1021 NOSIG RMK L
  • 291420Z 03010KT CAVOK 19/07 Q1021 NOSIG RMK K

TAF TAF LSZR
Valide du 29 à 15h jusqu'au 30 à 00h UTC


291425Z 2915/2924 04010KT CAVOK
BECMG 2917/2920 VRB03KT
ATIS : +41 71 858 51 66



MET'MAP, la Météo Aéronautique d'un coup d'oeil ! - Copyright ORBIFLY Décembre 2007 - Disclaimer

ORBIFLY MET'MAP TEAM :

Programmation & Développement : Alexandra Zaïnal
Sur une idée originale de : Baudouin d'Aumeries
Assistance à la programmation : Marc-Olivier Méhu
Soutien technique & logistique : Manuel Goepfert

Contact : metmap@orbifly.com




SOURCES & CREDITS :

   NOAA